sensor_id;sensor_type;location;lat;lon;timestamp;temperature;humidity
15546;DHT22;7874;48.870;11.074;2023-06-05T00:01:53;14.90;90.30
15546;DHT22;7874;48.870;11.074;2023-06-05T00:04:20;14.90;90.40
15546;DHT22;7874;48.870;11.074;2023-06-05T00:06:48;14.90;90.40
15546;DHT22;7874;48.870;11.074;2023-06-05T00:09:17;14.90;90.60
15546;DHT22;7874;48.870;11.074;2023-06-05T00:11:44;15.10;90.30
15546;DHT22;7874;48.870;11.074;2023-06-05T00:14:11;15.00;90.50
15546;DHT22;7874;48.870;11.074;2023-06-05T00:16:38;15.00;90.20
15546;DHT22;7874;48.870;11.074;2023-06-05T00:19:05;15.00;90.20
15546;DHT22;7874;48.870;11.074;2023-06-05T00:21:32;15.10;90.20
15546;DHT22;7874;48.870;11.074;2023-06-05T00:23:59;15.10;90.00
15546;DHT22;7874;48.870;11.074;2023-06-05T00:26:27;15.00;90.40
15546;DHT22;7874;48.870;11.074;2023-06-05T00:28:54;14.90;90.60
15546;DHT22;7874;48.870;11.074;2023-06-05T00:31:21;15.00;90.70
15546;DHT22;7874;48.870;11.074;2023-06-05T00:33:48;15.00;90.20
15546;DHT22;7874;48.870;11.074;2023-06-05T00:36:17;15.00;90.50
15546;DHT22;7874;48.870;11.074;2023-06-05T00:38:48;15.00;90.60
15546;DHT22;7874;48.870;11.074;2023-06-05T00:41:15;15.00;90.40
15546;DHT22;7874;48.870;11.074;2023-06-05T00:43:43;14.90;90.30
15546;DHT22;7874;48.870;11.074;2023-06-05T00:46:10;14.70;90.40
15546;DHT22;7874;48.870;11.074;2023-06-05T00:48:38;14.60;90.80
15546;DHT22;7874;48.870;11.074;2023-06-05T00:51:08;14.50;90.80
15546;DHT22;7874;48.870;11.074;2023-06-05T00:53:36;14.70;90.90
15546;DHT22;7874;48.870;11.074;2023-06-05T00:56:05;14.60;90.70
15546;DHT22;7874;48.870;11.074;2023-06-05T00:58:32;14.70;90.60
15546;DHT22;7874;48.870;11.074;2023-06-05T01:01:01;14.70;90.80
15546;DHT22;7874;48.870;11.074;2023-06-05T01:03:29;14.60;90.80
15546;DHT22;7874;48.870;11.074;2023-06-05T01:05:59;14.60;90.80
15546;DHT22;7874;48.870;11.074;2023-06-05T01:08:30;14.70;90.90
15546;DHT22;7874;48.870;11.074;2023-06-05T01:11:07;14.70;90.80
15546;DHT22;7874;48.870;11.074;2023-06-05T01:13:40;14.70;90.90
15546;DHT22;7874;48.870;11.074;2023-06-05T01:16:11;14.60;91.20
15546;DHT22;7874;48.870;11.074;2023-06-05T01:18:38;14.70;91.20
15546;DHT22;7874;48.870;11.074;2023-06-05T01:21:11;14.60;91.00
15546;DHT22;7874;48.870;11.074;2023-06-05T01:23:42;14.50;91.10
15546;DHT22;7874;48.870;11.074;2023-06-05T01:26:12;14.50;91.30
15546;DHT22;7874;48.870;11.074;2023-06-05T01:28:45;14.40;91.40
15546;DHT22;7874;48.870;11.074;2023-06-05T01:31:15;14.40;91.30
15546;DHT22;7874;48.870;11.074;2023-06-05T01:33:48;14.30;91.60
15546;DHT22;7874;48.870;11.074;2023-06-05T01:36:18;14.30;91.50
15546;DHT22;7874;48.870;11.074;2023-06-05T01:38:48;14.30;91.40
15546;DHT22;7874;48.870;11.074;2023-06-05T01:41:16;14.40;91.70
15546;DHT22;7874;48.870;11.074;2023-06-05T01:43:45;14.30;91.40
15546;DHT22;7874;48.870;11.074;2023-06-05T01:46:12;14.30;91.40
15546;DHT22;7874;48.870;11.074;2023-06-05T01:48:40;14.30;91.40
15546;DHT22;7874;48.870;11.074;2023-06-05T01:51:08;14.30;91.20
15546;DHT22;7874;48.870;11.074;2023-06-05T01:53:35;14.20;91.30
15546;DHT22;7874;48.870;11.074;2023-06-05T01:56:03;14.20;91.60
15546;DHT22;7874;48.870;11.074;2023-06-05T01:58:32;14.20;91.40
15546;DHT22;7874;48.870;11.074;2023-06-05T02:00:59;14.20;91.70
15546;DHT22;7874;48.870;11.074;2023-06-05T02:03:26;14.20;91.40
15546;DHT22;7874;48.870;11.074;2023-06-05T02:05:53;14.10;91.40
15546;DHT22;7874;48.870;11.074;2023-06-05T02:08:20;13.90;91.40
15546;DHT22;7874;48.870;11.074;2023-06-05T02:10:48;14.10;91.40
15546;DHT22;7874;48.870;11.074;2023-06-05T02:13:16;14.00;91.20
15546;DHT22;7874;48.870;11.074;2023-06-05T02:15:44;14.10;91.30
15546;DHT22;7874;48.870;11.074;2023-06-05T02:18:11;14.10;91.30
15546;DHT22;7874;48.870;11.074;2023-06-05T02:20:40;14.00;91.30
15546;DHT22;7874;48.870;11.074;2023-06-05T02:23:40;13.90;91.60
15546;DHT22;7874;48.870;11.074;2023-06-05T02:26:09;14.20;91.30
15546;DHT22;7874;48.870;11.074;2023-06-05T02:28:35;14.00;91.30
15546;DHT22;7874;48.870;11.074;2023-06-05T02:31:02;14.10;91.30
15546;DHT22;7874;48.870;11.074;2023-06-05T02:33:30;14.00;91.30
15546;DHT22;7874;48.870;11.074;2023-06-05T02:35:56;13.90;91.50
15546;DHT22;7874;48.870;11.074;2023-06-05T02:38:24;13.80;91.40
15546;DHT22;7874;48.870;11.074;2023-06-05T02:40:53;13.70;91.60
15546;DHT22;7874;48.870;11.074;2023-06-05T02:43:20;13.70;91.60
15546;DHT22;7874;48.870;11.074;2023-06-05T02:45:48;13.80;91.70
15546;DHT22;7874;48.870;11.074;2023-06-05T02:48:14;13.90;91.40
15546;DHT22;7874;48.870;11.074;2023-06-05T02:50:41;13.80;91.40
15546;DHT22;7874;48.870;11.074;2023-06-05T02:53:08;13.70;91.60
15546;DHT22;7874;48.870;11.074;2023-06-05T02:55:36;13.70;91.80
15546;DHT22;7874;48.870;11.074;2023-06-05T02:58:04;13.70;92.00
15546;DHT22;7874;48.870;11.074;2023-06-05T03:00:31;13.80;91.70
15546;DHT22;7874;48.870;11.074;2023-06-05T03:02:58;13.70;91.90
15546;DHT22;7874;48.870;11.074;2023-06-05T03:05:26;13.70;92.30
15546;DHT22;7874;48.870;11.074;2023-06-05T03:07:54;13.60;92.40
15546;DHT22;7874;48.870;11.074;2023-06-05T03:10:21;13.70;92.40
15546;DHT22;7874;48.870;11.074;2023-06-05T03:12:48;13.60;92.30
15546;DHT22;7874;48.870;11.074;2023-06-05T03:15:16;13.50;92.50
15546;DHT22;7874;48.870;11.074;2023-06-05T03:17:43;13.50;92.00
15546;DHT22;7874;48.870;11.074;2023-06-05T03:20:11;13.50;92.30
15546;DHT22;7874;48.870;11.074;2023-06-05T03:22:38;13.50;91.70
15546;DHT22;7874;48.870;11.074;2023-06-05T03:25:05;13.50;91.70
15546;DHT22;7874;48.870;11.074;2023-06-05T03:27:33;13.50;91.60
15546;DHT22;7874;48.870;11.074;2023-06-05T03:30:00;13.50;91.70
15546;DHT22;7874;48.870;11.074;2023-06-05T03:32:28;13.60;91.50
15546;DHT22;7874;48.870;11.074;2023-06-05T03:34:55;13.60;91.60
15546;DHT22;7874;48.870;11.074;2023-06-05T03:37:22;13.60;91.90
15546;DHT22;7874;48.870;11.074;2023-06-05T03:39:49;13.50;92.00
15546;DHT22;7874;48.870;11.074;2023-06-05T03:42:15;13.60;91.90
15546;DHT22;7874;48.870;11.074;2023-06-05T03:44:42;13.70;91.90
15546;DHT22;7874;48.870;11.074;2023-06-05T03:47:09;13.70;91.80
15546;DHT22;7874;48.870;11.074;2023-06-05T03:49:37;13.60;91.90
15546;DHT22;7874;48.870;11.074;2023-06-05T03:52:11;13.60;91.90
15546;DHT22;7874;48.870;11.074;2023-06-05T03:54:40;13.70;91.90
15546;DHT22;7874;48.870;11.074;2023-06-05T03:57:11;13.70;91.80
15546;DHT22;7874;48.870;11.074;2023-06-05T03:59:41;13.90;91.80
15546;DHT22;7874;48.870;11.074;2023-06-05T04:02:08;14.00;91.80
15546;DHT22;7874;48.870;11.074;2023-06-05T04:04:36;13.70;92.00
15546;DHT22;7874;48.870;11.074;2023-06-05T04:07:04;13.80;92.20
15546;DHT22;7874;48.870;11.074;2023-06-05T04:09:31;13.90;92.10
15546;DHT22;7874;48.870;11.074;2023-06-05T04:11:58;13.90;91.80
15546;DHT22;7874;48.870;11.074;2023-06-05T04:14:25;14.00;91.50
15546;DHT22;7874;48.870;11.074;2023-06-05T04:16:52;14.10;90.90
15546;DHT22;7874;48.870;11.074;2023-06-05T04:19:19;14.10;90.80
15546;DHT22;7874;48.870;11.074;2023-06-05T04:21:48;14.30;90.90
15546;DHT22;7874;48.870;11.074;2023-06-05T04:24:15;14.30;90.60
15546;DHT22;7874;48.870;11.074;2023-06-05T04:26:42;14.30;90.70
15546;DHT22;7874;48.870;11.074;2023-06-05T04:29:09;14.70;90.30
15546;DHT22;7874;48.870;11.074;2023-06-05T04:31:40;14.90;90.40
15546;DHT22;7874;48.870;11.074;2023-06-05T04:34:07;14.90;90.40
15546;DHT22;7874;48.870;11.074;2023-06-05T04:36:34;15.00;90.40
15546;DHT22;7874;48.870;11.074;2023-06-05T04:39:04;15.10;90.50
15546;DHT22;7874;48.870;11.074;2023-06-05T04:41:32;15.10;91.40
15546;DHT22;7874;48.870;11.074;2023-06-05T04:44:01;15.20;90.50
15546;DHT22;7874;48.870;11.074;2023-06-05T04:46:28;15.30;90.50
15546;DHT22;7874;48.870;11.074;2023-06-05T04:48:56;15.40;90.10
15546;DHT22;7874;48.870;11.074;2023-06-05T04:51:23;15.60;89.90
15546;DHT22;7874;48.870;11.074;2023-06-05T04:53:50;15.80;89.90
15546;DHT22;7874;48.870;11.074;2023-06-05T04:56:19;16.00;89.10
15546;DHT22;7874;48.870;11.074;2023-06-05T04:58:47;16.10;88.10
15546;DHT22;7874;48.870;11.074;2023-06-05T05:01:16;16.40;87.50
15546;DHT22;7874;48.870;11.074;2023-06-05T05:03:43;16.50;87.80
15546;DHT22;7874;48.870;11.074;2023-06-05T05:06:14;16.40;87.90
15546;DHT22;7874;48.870;11.074;2023-06-05T05:08:42;16.60;87.20
15546;DHT22;7874;48.870;11.074;2023-06-05T05:12:26;16.80;86.80
15546;DHT22;7874;48.870;11.074;2023-06-05T05:14:54;17.20;85.90
15546;DHT22;7874;48.870;11.074;2023-06-05T05:17:21;17.40;85.50
15546;DHT22;7874;48.870;11.074;2023-06-05T05:19:50;17.60;85.30
15546;DHT22;7874;48.870;11.074;2023-06-05T05:22:18;17.60;85.40
15546;DHT22;7874;48.870;11.074;2023-06-05T05:24:45;17.60;86.40
15546;DHT22;7874;48.870;11.074;2023-06-05T05:27:13;17.40;87.30
15546;DHT22;7874;48.870;11.074;2023-06-05T05:29:42;17.30;87.90
15546;DHT22;7874;48.870;11.074;2023-06-05T05:32:08;17.60;87.10
15546;DHT22;7874;48.870;11.074;2023-06-05T05:34:35;17.90;85.80
15546;DHT22;7874;48.870;11.074;2023-06-05T05:37:03;18.10;85.20
15546;DHT22;7874;48.870;11.074;2023-06-05T06:30:06;21.40;73.00
15546;DHT22;7874;48.870;11.074;2023-06-05T06:32:33;21.80;74.20
15546;DHT22;7874;48.870;11.074;2023-06-05T06:34:59;21.80;74.00
15546;DHT22;7874;48.870;11.074;2023-06-05T06:37:26;21.90;73.50
15546;DHT22;7874;48.870;11.074;2023-06-05T06:39:53;22.20;74.00
15546;DHT22;7874;48.870;11.074;2023-06-05T06:42:20;21.90;72.70
15546;DHT22;7874;48.870;11.074;2023-06-05T06:44:47;22.00;73.80
15546;DHT22;7874;48.870;11.074;2023-06-05T06:47:15;22.10;74.50
15546;DHT22;7874;48.870;11.074;2023-06-05T06:49:42;22.10;74.20
15546;DHT22;7874;48.870;11.074;2023-06-05T06:52:09;22.50;73.60
15546;DHT22;7874;48.870;11.074;2023-06-05T06:54:37;22.70;74.20
15546;DHT22;7874;48.870;11.074;2023-06-05T06:57:04;22.80;73.20
15546;DHT22;7874;48.870;11.074;2023-06-05T06:59:31;23.10;73.70
15546;DHT22;7874;48.870;11.074;2023-06-05T07:02:10;22.80;73.00
15546;DHT22;7874;48.870;11.074;2023-06-05T07:04:40;23.30;74.20
15546;DHT22;7874;48.870;11.074;2023-06-05T07:07:11;22.90;73.30
15546;DHT22;7874;48.870;11.074;2023-06-05T07:09:40;23.20;73.50
15546;DHT22;7874;48.870;11.074;2023-06-05T07:12:08;23.60;73.70
15546;DHT22;7874;48.870;11.074;2023-06-05T07:14:36;23.70;72.10
15546;DHT22;7874;48.870;11.074;2023-06-05T07:17:04;24.00;72.70
15546;DHT22;7874;48.870;11.074;2023-06-05T07:19:31;24.00;71.40
15546;DHT22;7874;48.870;11.074;2023-06-05T07:22:01;24.10;71.60
15546;DHT22;7874;48.870;11.074;2023-06-05T07:24:30;23.50;72.70
15546;DHT22;7874;48.870;11.074;2023-06-05T07:27:00;23.70;73.90
15546;DHT22;7874;48.870;11.074;2023-06-05T07:29:27;23.90;72.40
15546;DHT22;7874;48.870;11.074;2023-06-05T07:31:55;24.00;72.20
15546;DHT22;7874;48.870;11.074;2023-06-05T07:34:23;23.90;72.50
15546;DHT22;7874;48.870;11.074;2023-06-05T07:36:51;24.20;72.90
15546;DHT22;7874;48.870;11.074;2023-06-05T07:39:20;24.40;72.50
15546;DHT22;7874;48.870;11.074;2023-06-05T07:41:47;24.30;73.40
15546;DHT22;7874;48.870;11.074;2023-06-05T07:44:15;24.70;73.10
15546;DHT22;7874;48.870;11.074;2023-06-05T07:46:43;24.90;73.00
15546;DHT22;7874;48.870;11.074;2023-06-05T07:49:10;24.70;72.10
15546;DHT22;7874;48.870;11.074;2023-06-05T07:51:37;24.90;72.60
15546;DHT22;7874;48.870;11.074;2023-06-05T07:54:06;25.10;71.10
15546;DHT22;7874;48.870;11.074;2023-06-05T07:56:34;25.10;71.60
15546;DHT22;7874;48.870;11.074;2023-06-05T08:01:14;25.30;71.60
15546;DHT22;7874;48.870;11.074;2023-06-05T08:03:41;25.20;71.30
15546;DHT22;7874;48.870;11.074;2023-06-05T08:06:09;25.40;71.30
15546;DHT22;7874;48.870;11.074;2023-06-05T08:08:39;25.60;71.20
15546;DHT22;7874;48.870;11.074;2023-06-05T08:11:06;25.80;70.20
15546;DHT22;7874;48.870;11.074;2023-06-05T08:13:33;25.60;70.20
15546;DHT22;7874;48.870;11.074;2023-06-05T08:15:59;25.60;70.60
15546;DHT22;7874;48.870;11.074;2023-06-05T08:18:28;25.90;70.30
15546;DHT22;7874;48.870;11.074;2023-06-05T08:20:55;26.00;69.70
15546;DHT22;7874;48.870;11.074;2023-06-05T08:23:22;26.30;69.40
15546;DHT22;7874;48.870;11.074;2023-06-05T08:25:49;25.30;70.70
15546;DHT22;7874;48.870;11.074;2023-06-05T08:28:15;25.00;71.20
15546;DHT22;7874;48.870;11.074;2023-06-05T08:30:43;24.70;71.50
15546;DHT22;7874;48.870;11.074;2023-06-05T08:33:10;24.70;72.30
15546;DHT22;7874;48.870;11.074;2023-06-05T08:35:40;25.50;70.20
15546;DHT22;7874;48.870;11.074;2023-06-05T08:38:07;25.20;72.00
15546;DHT22;7874;48.870;11.074;2023-06-05T08:40:34;25.90;69.90
15546;DHT22;7874;48.870;11.074;2023-06-05T08:43:02;25.60;69.90
15546;DHT22;7874;48.870;11.074;2023-06-05T08:45:30;26.30;68.10
15546;DHT22;7874;48.870;11.074;2023-06-05T08:48:00;26.00;68.70
15546;DHT22;7874;48.870;11.074;2023-06-05T08:50:28;26.70;69.30
15546;DHT22;7874;48.870;11.074;2023-06-05T08:52:58;26.80;67.30
15546;DHT22;7874;48.870;11.074;2023-06-05T08:55:26;26.90;67.90
15546;DHT22;7874;48.870;11.074;2023-06-05T08:57:53;27.60;67.30
15546;DHT22;7874;48.870;11.074;2023-06-05T09:00:21;27.50;66.70
15546;DHT22;7874;48.870;11.074;2023-06-05T09:02:48;27.50;66.90
15546;DHT22;7874;48.870;11.074;2023-06-05T09:05:15;27.80;65.20
15546;DHT22;7874;48.870;11.074;2023-06-05T09:07:42;27.00;66.10
15546;DHT22;7874;48.870;11.074;2023-06-05T09:10:23;27.40;67.20
15546;DHT22;7874;48.870;11.074;2023-06-05T09:12:54;28.70;65.10
15546;DHT22;7874;48.870;11.074;2023-06-05T09:15:22;27.40;68.00
15546;DHT22;7874;48.870;11.074;2023-06-05T09:18:05;26.80;66.20
15546;DHT22;7874;48.870;11.074;2023-06-05T09:20:34;25.80;66.20
15546;DHT22;7874;48.870;11.074;2023-06-05T09:23:02;26.30;66.50
15546;DHT22;7874;48.870;11.074;2023-06-05T09:25:45;25.70;67.10
15546;DHT22;7874;48.870;11.074;2023-06-05T09:28:14;25.70;69.30
15546;DHT22;7874;48.870;11.074;2023-06-05T09:30:54;27.50;67.50
15546;DHT22;7874;48.870;11.074;2023-06-05T09:33:22;29.10;62.80
15546;DHT22;7874;48.870;11.074;2023-06-05T09:36:02;29.50;62.90
15546;DHT22;7874;48.870;11.074;2023-06-05T09:38:29;30.80;59.90
15546;DHT22;7874;48.870;11.074;2023-06-05T09:41:03;31.20;60.10
15546;DHT22;7874;48.870;11.074;2023-06-05T09:43:30;31.40;60.40
15546;DHT22;7874;48.870;11.074;2023-06-05T09:45:57;30.80;61.70
15546;DHT22;7874;48.870;11.074;2023-06-05T09:48:24;29.80;61.00
15546;DHT22;7874;48.870;11.074;2023-06-05T09:50:52;29.20;61.40
15546;DHT22;7874;48.870;11.074;2023-06-05T09:53:20;30.30;61.50
15546;DHT22;7874;48.870;11.074;2023-06-05T09:55:48;31.30;59.90
15546;DHT22;7874;48.870;11.074;2023-06-05T09:58:17;31.40;58.20
15546;DHT22;7874;48.870;11.074;2023-06-05T10:00:46;31.80;59.70
15546;DHT22;7874;48.870;11.074;2023-06-05T10:03:16;30.70;59.90
15546;DHT22;7874;48.870;11.074;2023-06-05T10:05:44;30.60;58.60
15546;DHT22;7874;48.870;11.074;2023-06-05T10:08:12;29.80;59.80
15546;DHT22;7874;48.870;11.074;2023-06-05T10:10:40;30.50;59.40
15546;DHT22;7874;48.870;11.074;2023-06-05T10:13:07;31.10;58.10
15546;DHT22;7874;48.870;11.074;2023-06-05T10:15:38;31.60;57.90
15546;DHT22;7874;48.870;11.074;2023-06-05T10:18:08;30.90;58.10
15546;DHT22;7874;48.870;11.074;2023-06-05T10:20:35;30.00;58.40
15546;DHT22;7874;48.870;11.074;2023-06-05T10:23:03;31.20;59.10
15546;DHT22;7874;48.870;11.074;2023-06-05T10:25:31;31.10;58.40
15546;DHT22;7874;48.870;11.074;2023-06-05T10:28:15;31.40;59.10
15546;DHT22;7874;48.870;11.074;2023-06-05T10:31:17;30.70;58.90
15546;DHT22;7874;48.870;11.074;2023-06-05T10:34:06;31.90;57.70
15546;DHT22;7874;48.870;11.074;2023-06-05T10:36:55;32.70;59.00
15546;DHT22;7874;48.870;11.074;2023-06-05T10:39:26;33.30;59.10
15546;DHT22;7874;48.870;11.074;2023-06-05T10:41:56;34.00;58.20
15546;DHT22;7874;48.870;11.074;2023-06-05T10:44:38;33.10;57.70
15546;DHT22;7874;48.870;11.074;2023-06-05T10:50:27;32.80;57.90
15546;DHT22;7874;48.870;11.074;2023-06-05T10:52:56;32.60;58.80
15546;DHT22;7874;48.870;11.074;2023-06-05T10:55:25;30.50;59.10
15546;DHT22;7874;48.870;11.074;2023-06-05T10:58:09;31.10;59.00
15546;DHT22;7874;48.870;11.074;2023-06-05T11:01:17;32.00;58.30
15546;DHT22;7874;48.870;11.074;2023-06-05T11:03:56;31.70;57.80
15546;DHT22;7874;48.870;11.074;2023-06-05T11:06:25;33.00;58.20
15546;DHT22;7874;48.870;11.074;2023-06-05T11:09:11;33.20;57.90
15546;DHT22;7874;48.870;11.074;2023-06-05T11:11:57;34.00;57.10
15546;DHT22;7874;48.870;11.074;2023-06-05T11:14:25;33.20;57.70
15546;DHT22;7874;48.870;11.074;2023-06-05T11:17:26;32.90;58.30
15546;DHT22;7874;48.870;11.074;2023-06-05T11:19:54;32.80;58.10
15546;DHT22;7874;48.870;11.074;2023-06-05T11:22:23;31.40;58.30
15546;DHT22;7874;48.870;11.074;2023-06-05T11:25:26;30.40;58.80
15546;DHT22;7874;48.870;11.074;2023-06-05T11:27:54;28.90;62.00
15546;DHT22;7874;48.870;11.074;2023-06-05T11:30:24;28.50;64.00
15546;DHT22;7874;48.870;11.074;2023-06-05T11:32:52;30.30;61.10
15546;DHT22;7874;48.870;11.074;2023-06-05T11:35:25;31.70;59.00
15546;DHT22;7874;48.870;11.074;2023-06-05T11:38:08;31.50;59.30
15546;DHT22;7874;48.870;11.074;2023-06-05T11:40:36;31.60;58.80
15546;DHT22;7874;48.870;11.074;2023-06-05T11:43:04;32.10;60.10
15546;DHT22;7874;48.870;11.074;2023-06-05T11:45:32;32.80;58.80
15546;DHT22;7874;48.870;11.074;2023-06-05T11:48:05;31.60;57.70
15546;DHT22;7874;48.870;11.074;2023-06-05T11:50:32;31.10;57.50
15546;DHT22;7874;48.870;11.074;2023-06-05T11:53:05;31.60;59.10
15546;DHT22;7874;48.870;11.074;2023-06-05T11:55:33;32.20;58.30
15546;DHT22;7874;48.870;11.074;2023-06-05T11:58:21;30.90;59.50
15546;DHT22;7874;48.870;11.074;2023-06-05T12:00:48;31.80;58.90
15546;DHT22;7874;48.870;11.074;2023-06-05T12:03:18;33.20;55.20
15546;DHT22;7874;48.870;11.074;2023-06-05T12:05:47;32.40;57.10
15546;DHT22;7874;48.870;11.074;2023-06-05T12:08:23;30.10;59.00
15546;DHT22;7874;48.870;11.074;2023-06-05T12:10:52;29.80;60.20
15546;DHT22;7874;48.870;11.074;2023-06-05T12:13:19;31.40;58.60
15546;DHT22;7874;48.870;11.074;2023-06-05T12:15:56;32.20;57.70
15546;DHT22;7874;48.870;11.074;2023-06-05T12:18:31;31.10;58.50
15546;DHT22;7874;48.870;11.074;2023-06-05T12:20:58;31.00;59.40
15546;DHT22;7874;48.870;11.074;2023-06-05T12:23:25;32.40;57.50
15546;DHT22;7874;48.870;11.074;2023-06-05T12:26:01;33.30;56.10
15546;DHT22;7874;48.870;11.074;2023-06-05T12:28:28;33.00;55.20
15546;DHT22;7874;48.870;11.074;2023-06-05T12:31:00;33.50;55.00
15546;DHT22;7874;48.870;11.074;2023-06-05T12:33:28;34.10;55.10
15546;DHT22;7874;48.870;11.074;2023-06-05T12:36:05;33.70;54.10
15546;DHT22;7874;48.870;11.074;2023-06-05T12:38:37;33.40;54.30
15546;DHT22;7874;48.870;11.074;2023-06-05T12:41:06;33.10;55.70
15546;DHT22;7874;48.870;11.074;2023-06-05T12:43:33;33.90;55.70
15546;DHT22;7874;48.870;11.074;2023-06-05T12:46:00;34.10;55.20
15546;DHT22;7874;48.870;11.074;2023-06-05T12:48:27;33.00;55.20
15546;DHT22;7874;48.870;11.074;2023-06-05T12:50:54;32.60;55.70
15546;DHT22;7874;48.870;11.074;2023-06-05T12:53:21;32.50;55.40
15546;DHT22;7874;48.870;11.074;2023-06-05T12:55:48;32.60;55.00
15546;DHT22;7874;48.870;11.074;2023-06-05T12:58:17;33.20;54.10
15546;DHT22;7874;48.870;11.074;2023-06-05T13:00:44;33.80;54.60
15546;DHT22;7874;48.870;11.074;2023-06-05T13:03:10;34.60;56.00
15546;DHT22;7874;48.870;11.074;2023-06-05T13:05:38;34.90;53.40
15546;DHT22;7874;48.870;11.074;2023-06-05T13:08:04;34.50;53.50
15546;DHT22;7874;48.870;11.074;2023-06-05T13:10:31;32.30;55.10
15546;DHT22;7874;48.870;11.074;2023-06-05T13:12:58;32.90;55.60
15546;DHT22;7874;48.870;11.074;2023-06-05T13:15:26;33.90;54.50
15546;DHT22;7874;48.870;11.074;2023-06-05T13:17:53;34.40;53.70
15546;DHT22;7874;48.870;11.074;2023-06-05T13:20:20;34.40;53.60
15546;DHT22;7874;48.870;11.074;2023-06-05T13:22:50;34.20;53.40
15546;DHT22;7874;48.870;11.074;2023-06-05T13:25:17;34.40;55.50
15546;DHT22;7874;48.870;11.074;2023-06-05T13:27:46;34.60;52.50
15546;DHT22;7874;48.870;11.074;2023-06-05T13:30:13;34.70;53.80
15546;DHT22;7874;48.870;11.074;2023-06-05T13:32:42;34.00;53.30
15546;DHT22;7874;48.870;11.074;2023-06-05T13:35:10;33.70;55.20
15546;DHT22;7874;48.870;11.074;2023-06-05T13:38:43;33.20;55.00
15546;DHT22;7874;48.870;11.074;2023-06-05T13:41:10;32.50;55.50
15546;DHT22;7874;48.870;11.074;2023-06-05T13:43:37;32.20;55.40
15546;DHT22;7874;48.870;11.074;2023-06-05T13:46:03;31.60;56.20
15546;DHT22;7874;48.870;11.074;2023-06-05T13:48:31;32.40;56.00
15546;DHT22;7874;48.870;11.074;2023-06-05T13:50:59;31.50;57.30
15546;DHT22;7874;48.870;11.074;2023-06-05T13:53:26;31.40;57.20
15546;DHT22;7874;48.870;11.074;2023-06-05T13:55:55;30.90;57.60
15546;DHT22;7874;48.870;11.074;2023-06-05T13:58:21;30.50;58.50
15546;DHT22;7874;48.870;11.074;2023-06-05T14:00:48;29.20;58.50
15546;DHT22;7874;48.870;11.074;2023-06-05T14:03:15;28.80;59.60
15546;DHT22;7874;48.870;11.074;2023-06-05T14:05:45;28.30;59.50
15546;DHT22;7874;48.870;11.074;2023-06-05T14:08:12;28.20;62.30
15546;DHT22;7874;48.870;11.074;2023-06-05T14:10:38;27.90;63.70
15546;DHT22;7874;48.870;11.074;2023-06-05T14:13:07;27.80;64.50
15546;DHT22;7874;48.870;11.074;2023-06-05T14:15:34;27.40;66.50
15546;DHT22;7874;48.870;11.074;2023-06-05T14:18:02;26.90;66.30
15546;DHT22;7874;48.870;11.074;2023-06-05T14:20:30;27.00;67.20
15546;DHT22;7874;48.870;11.074;2023-06-05T14:22:57;27.10;66.70
15546;DHT22;7874;48.870;11.074;2023-06-05T14:25:24;27.20;66.60
15546;DHT22;7874;48.870;11.074;2023-06-05T14:27:53;27.20;67.10
15546;DHT22;7874;48.870;11.074;2023-06-05T14:30:24;26.80;67.10
15546;DHT22;7874;48.870;11.074;2023-06-05T14:32:51;26.50;67.20
15546;DHT22;7874;48.870;11.074;2023-06-05T14:35:18;26.50;67.80
15546;DHT22;7874;48.870;11.074;2023-06-05T14:37:46;26.50;68.30
15546;DHT22;7874;48.870;11.074;2023-06-05T14:40:13;26.70;70.90
15546;DHT22;7874;48.870;11.074;2023-06-05T14:42:40;26.40;69.80
15546;DHT22;7874;48.870;11.074;2023-06-05T14:45:08;26.00;70.90
15546;DHT22;7874;48.870;11.074;2023-06-05T14:47:36;25.90;70.70
15546;DHT22;7874;48.870;11.074;2023-06-05T14:50:04;25.50;70.40
15546;DHT22;7874;48.870;11.074;2023-06-05T14:52:30;25.10;71.60
15546;DHT22;7874;48.870;11.074;2023-06-05T14:54:57;24.90;72.70
15546;DHT22;7874;48.870;11.074;2023-06-05T14:57:24;24.90;73.90
15546;DHT22;7874;48.870;11.074;2023-06-05T14:59:51;24.50;75.40
15546;DHT22;7874;48.870;11.074;2023-06-05T15:02:18;24.10;76.40
15546;DHT22;7874;48.870;11.074;2023-06-05T15:04:49;24.10;77.50
15546;DHT22;7874;48.870;11.074;2023-06-05T15:07:19;24.00;77.40
15546;DHT22;7874;48.870;11.074;2023-06-05T15:09:46;23.90;77.60
15546;DHT22;7874;48.870;11.074;2023-06-05T15:12:14;23.90;78.00
15546;DHT22;7874;48.870;11.074;2023-06-05T15:14:42;23.80;77.80
15546;DHT22;7874;48.870;11.074;2023-06-05T15:17:09;23.60;78.00
15546;DHT22;7874;48.870;11.074;2023-06-05T15:19:37;23.70;78.40
15546;DHT22;7874;48.870;11.074;2023-06-05T15:22:06;23.70;78.50
15546;DHT22;7874;48.870;11.074;2023-06-05T15:24:33;23.80;78.90
15546;DHT22;7874;48.870;11.074;2023-06-05T15:27:00;23.80;78.60
15546;DHT22;7874;48.870;11.074;2023-06-05T15:29:28;24.10;79.40
15546;DHT22;7874;48.870;11.074;2023-06-05T15:31:55;24.40;78.70
15546;DHT22;7874;48.870;11.074;2023-06-05T15:34:22;24.40;77.70
15546;DHT22;7874;48.870;11.074;2023-06-05T15:36:49;24.10;78.90
15546;DHT22;7874;48.870;11.074;2023-06-05T15:39:17;24.10;79.70
15546;DHT22;7874;48.870;11.074;2023-06-05T15:41:45;23.70;80.60
15546;DHT22;7874;48.870;11.074;2023-06-05T15:44:15;23.70;80.80
15546;DHT22;7874;48.870;11.074;2023-06-05T15:46:43;23.70;82.40
15546;DHT22;7874;48.870;11.074;2023-06-05T15:49:11;23.30;84.00
15546;DHT22;7874;48.870;11.074;2023-06-05T15:51:37;23.40;84.10
15546;DHT22;7874;48.870;11.074;2023-06-05T15:54:04;23.50;83.60
15546;DHT22;7874;48.870;11.074;2023-06-05T15:56:33;23.30;83.40
15546;DHT22;7874;48.870;11.074;2023-06-05T15:59:00;23.30;84.10
15546;DHT22;7874;48.870;11.074;2023-06-05T16:01:27;23.20;83.30
15546;DHT22;7874;48.870;11.074;2023-06-05T16:03:54;23.40;83.10
15546;DHT22;7874;48.870;11.074;2023-06-05T16:06:21;23.40;82.30
15546;DHT22;7874;48.870;11.074;2023-06-05T16:08:49;22.90;82.30
15546;DHT22;7874;48.870;11.074;2023-06-05T16:11:16;22.80;85.40
15546;DHT22;7874;48.870;11.074;2023-06-05T16:13:45;22.70;87.00
15546;DHT22;7874;48.870;11.074;2023-06-05T16:16:12;22.40;90.20
15546;DHT22;7874;48.870;11.074;2023-06-05T16:18:39;22.10;92.10
15546;DHT22;7874;48.870;11.074;2023-06-05T16:21:07;21.90;92.50
15546;DHT22;7874;48.870;11.074;2023-06-05T16:23:34;21.60;93.00
15546;DHT22;7874;48.870;11.074;2023-06-05T16:27:28;21.30;92.70
15546;DHT22;7874;48.870;11.074;2023-06-05T16:29:55;21.20;93.10
15546;DHT22;7874;48.870;11.074;2023-06-05T16:32:22;21.40;94.10
15546;DHT22;7874;48.870;11.074;2023-06-05T16:34:49;21.40;93.20
15546;DHT22;7874;48.870;11.074;2023-06-05T16:37:16;21.40;92.90
15546;DHT22;7874;48.870;11.074;2023-06-05T16:39:43;21.50;96.10
15546;DHT22;7874;48.870;11.074;2023-06-05T16:42:11;21.30;93.10